Time;durP1;ratioP1;P1;durP2;ratioP2;P2;SDS_P1;SDS_P2;PMS_P1;PMS_P2;Temp;Humidity;BMP_temperature;BMP_pressure;BME280_temperature;BME280_humidity;BME280_pressure;Samples;Min_cycle;Max_cycle;Signal;HPM_P1;HPM_P2
2023/01/24 00:42:22;;;;;;;61.20;23.90;;;;;;;;;;6155371;23;20267;-92
2023/01/24 00:45:29;;;;;;;60.20;23.97;;;;;;;;;;6184398;23;20247;-95
2023/01/24 00:48:34;;;;;;;55.10;22.57;;;;;;;;;;6183655;23;20171;-92
2023/01/24 00:51:39;;;;;;;60.90;23.33;;;;;;;;;;6184555;23;20148;-92
2023/01/24 00:54:44;;;;;;;56.93;21.97;;;;;;;;;;6184478;23;20215;-92
2023/01/24 00:57:50;;;;;;;53.40;22.50;;;;;;;;;;6182835;23;20214;-93
2023/01/24 01:01:00;;;;;;;66.33;23.10;;;;;;;;;;6183071;23;20360;-92
2023/01/24 01:04:05;;;;;;;64.87;25.60;;;;;;;;;;6182082;23;20175;-94
2023/01/24 01:07:10;;;;;;;75.33;31.00;;;;;;;;;;6182677;23;20221;-91
2023/01/24 01:10:15;;;;;;;54.70;21.87;;;;;;;;;;6181432;23;20220;-92
2023/01/24 01:13:21;;;;;;;50.00;21.70;;;;;;;;;;6184512;23;20187;-91
2023/01/24 01:16:28;;;;;;;62.97;23.13;;;;;;;;;;6186628;23;20179;-91
2023/01/24 01:19:52;;;;;;;55.27;21.73;;;;;;;;;;6185023;23;20163;-90
2023/01/24 01:22:58;;;;;;;54.10;22.30;;;;;;;;;;6183564;23;20253;-91
2023/01/24 01:26:04;;;;;;;56.70;22.23;;;;;;;;;;6181822;23;20485;-92
2023/01/24 01:29:09;;;;;;;54.03;20.80;;;;;;;;;;6183005;23;20164;-93
2023/01/24 01:32:21;;;;;;;55.97;21.57;;;;;;;;;;6182072;23;20163;-91
2023/01/24 01:35:26;;;;;;;52.60;22.07;;;;;;;;;;6181066;23;20164;-91
2023/01/24 01:38:31;;;;;;;61.10;23.83;;;;;;;;;;6182454;23;20296;-94
2023/01/24 01:41:37;;;;;;;54.87;22.50;;;;;;;;;;6182087;23;20219;-89
2023/01/24 01:44:46;;;;;;;52.63;20.50;;;;;;;;;;6204108;23;20219;-93
2023/01/24 01:47:53;;;;;;;52.83;21.30;;;;;;;;;;6200821;23;20255;-91
2023/01/24 01:51:01;;;;;;;56.57;22.57;;;;;;;;;;6203533;23;20183;-92
2023/01/24 01:54:09;;;;;;;55.87;22.33;;;;;;;;;;6199402;23;20163;-92
2023/01/24 01:57:16;;;;;;;63.17;23.93;;;;;;;;;;6199307;23;20151;-93
2023/01/24 02:00:23;;;;;;;55.57;22.27;;;;;;;;;;6199230;23;20168;-91
2023/01/24 02:03:40;;;;;;;55.60;21.50;;;;;;;;;;6198337;23;20172;-92
2023/01/24 02:06:50;;;;;;;54.57;22.07;;;;;;;;;;6198474;23;20299;-91
2023/01/24 02:09:56;;;;;;;53.50;21.73;;;;;;;;;;6198460;23;20151;-91
2023/01/24 02:13:02;;;;;;;52.27;21.03;;;;;;;;;;6200355;23;20240;-92
2023/01/24 02:16:07;;;;;;;53.27;22.17;;;;;;;;;;6199238;23;20192;-92
2023/01/24 02:22:59;;;;;;;55.33;21.33;;;;;;;;;;6198925;23;20642;-93
2023/01/24 02:26:08;;;;;;;51.73;20.73;;;;;;;;;;6198038;23;20168;-92
2023/01/24 02:29:15;;;;;;;53.27;22.20;;;;;;;;;;6198160;23;20167;-91
2023/01/24 02:32:21;;;;;;;54.23;21.00;;;;;;;;;;6198983;23;20155;-89
2023/01/24 02:35:27;;;;;;;53.93;21.40;;;;;;;;;;6198719;23;20172;-92
2023/01/24 02:38:32;;;;;;;55.43;21.53;;;;;;;;;;6198814;23;20232;-92
2023/01/24 02:41:41;;;;;;;52.10;20.80;;;;;;;;;;6198976;23;20192;-94
2023/01/24 02:44:49;;;;;;;51.60;20.83;;;;;;;;;;6198315;23;20192;-92
2023/01/24 02:47:56;;;;;;;55.17;20.97;;;;;;;;;;6198150;23;20155;-91
2023/01/24 02:54:24;;;;;;;50.73;20.33;;;;;;;;;;6200058;23;20196;-92
2023/01/24 03:00:55;;;;;;;50.13;20.03;;;;;;;;;;6197728;23;20219;-94
2023/01/24 03:04:02;;;;;;;49.40;21.23;;;;;;;;;;6197861;23;20191;-91
2023/01/24 03:07:09;;;;;;;54.17;20.10;;;;;;;;;;6198599;23;20164;-91
2023/01/24 03:10:20;;;;;;;52.10;21.57;;;;;;;;;;6199340;23;20172;-90
2023/01/24 03:37:16;;;;;;;53.37;20.80;;;;;;;;;;6197754;23;20179;-92
2023/01/24 03:40:21;;;;;;;46.60;19.13;;;;;;;;;;6199305;23;20167;-90
2023/01/24 03:43:26;;;;;;;56.00;21.77;;;;;;;;;;6201098;23;20196;-90
2023/01/24 03:46:39;;;;;;;52.33;21.47;;;;;;;;;;6202032;23;20167;-91
2023/01/24 03:53:09;;;;;;;46.70;20.57;;;;;;;;;;6201809;23;20192;-93
2023/01/24 03:56:14;;;;;;;49.63;19.70;;;;;;;;;;6200183;23;20167;-93
2023/01/24 03:59:25;;;;;;;50.63;19.67;;;;;;;;;;6201929;23;20211;-92
2023/01/24 04:02:31;;;;;;;51.43;20.63;;;;;;;;;;6203006;23;20195;-93
2023/01/24 04:05:37;;;;;;;49.87;19.40;;;;;;;;;;6201197;23;20168;-91
2023/01/24 04:08:42;;;;;;;47.60;19.83;;;;;;;;;;6200800;23;20163;-93
2023/01/24 04:12:20;;;;;;;48.33;20.53;;;;;;;;;;6200086;23;20175;-92
2023/01/24 04:15:27;;;;;;;49.50;19.53;;;;;;;;;;6200878;23;20167;-92
2023/01/24 04:18:46;;;;;;;45.10;19.37;;;;;;;;;;6199715;23;20225;-91
2023/01/24 04:21:52;;;;;;;46.90;18.57;;;;;;;;;;6200833;23;20192;-91
2023/01/24 04:24:58;;;;;;;51.27;20.07;;;;;;;;;;6201118;23;20171;-92
2023/01/24 04:28:10;;;;;;;49.23;19.07;;;;;;;;;;6200240;23;20171;-93
2023/01/24 04:31:16;;;;;;;46.53;19.37;;;;;;;;;;6200671;23;20164;-91
2023/01/24 04:34:43;;;;;;;51.30;20.53;;;;;;;;;;6202950;23;20168;-93
2023/01/24 04:37:59;;;;;;;51.40;20.80;;;;;;;;;;6200579;23;20217;-92
2023/01/24 04:41:16;;;;;;;49.33;20.40;;;;;;;;;;6202014;23;20498;-93
2023/01/24 04:44:22;;;;;;;51.43;20.37;;;;;;;;;;6201424;23;20187;-92
2023/01/24 04:47:27;;;;;;;51.23;20.40;;;;;;;;;;6201053;23;20680;-93
2023/01/24 04:50:34;;;;;;;46.57;18.80;;;;;;;;;;6201241;23;20187;-91
2023/01/24 04:53:40;;;;;;;47.33;19.37;;;;;;;;;;6199774;23;20211;-93
2023/01/24 04:56:45;;;;;;;46.30;19.83;;;;;;;;;;6200324;23;20612;-93
2023/01/24 04:59:51;;;;;;;50.90;20.07;;;;;;;;;;6202865;23;20147;-90
2023/01/24 05:07:19;;;;;;;44.67;18.87;;;;;;;;;;6201968;23;20619;-92
2023/01/24 05:10:31;;;;;;;50.73;19.30;;;;;;;;;;6199772;23;20180;-91
2023/01/24 05:13:37;;;;;;;47.70;19.73;;;;;;;;;;6201132;23;20159;-93
2023/01/24 05:16:43;;;;;;;49.03;20.07;;;;;;;;;;6202569;23;20167;-92
2023/01/24 05:19:49;;;;;;;50.03;20.50;;;;;;;;;;6201704;23;20168;-93
2023/01/24 05:22:58;;;;;;;46.27;18.87;;;;;;;;;;6204516;23;20199;-91
2023/01/24 05:26:08;;;;;;;47.80;19.90;;;;;;;;;;6202911;23;20245;-91
2023/01/24 05:29:13;;;;;;;47.60;19.10;;;;;;;;;;6202852;23;20216;-91
2023/01/24 05:32:19;;;;;;;47.90;18.67;;;;;;;;;;6200979;23;20373;-94
2023/01/24 05:35:25;;;;;;;52.40;20.03;;;;;;;;;;6203177;23;20172;-92
2023/01/24 05:38:32;;;;;;;49.40;19.03;;;;;;;;;;6198948;23;20168;-92
2023/01/24 05:41:39;;;;;;;52.47;19.17;;;;;;;;;;6203968;23;20205;-92
2023/01/24 05:44:45;;;;;;;47.17;19.13;;;;;;;;;;6200278;23;20199;-90
2023/01/24 05:47:51;;;;;;;49.00;20.13;;;;;;;;;;6202892;23;20159;-93
2023/01/24 05:50:59;;;;;;;48.37;18.80;;;;;;;;;;6202232;23;20172;-93
2023/01/24 05:54:06;;;;;;;47.00;19.43;;;;;;;;;;6202339;23;20180;-93
2023/01/24 05:57:33;;;;;;;45.37;18.60;;;;;;;;;;6201251;23;20176;-93
2023/01/24 06:00:57;;;;;;;51.83;19.80;;;;;;;;;;6203199;23;20172;-92
2023/01/24 06:04:02;;;;;;;44.27;18.77;;;;;;;;;;6204022;23;20508;-92
2023/01/24 06:07:09;;;;;;;44.90;18.80;;;;;;;;;;6203054;23;20183;-92
2023/01/24 06:10:19;;;;;;;49.87;19.47;;;;;;;;;;6202063;23;20168;-89
2023/01/24 06:13:41;;;;;;;48.67;18.60;;;;;;;;;;6202323;23;20176;-91
2023/01/24 06:20:09;;;;;;;46.33;18.80;;;;;;;;;;6201560;23;20172;-89
2023/01/24 06:23:18;;;;;;;44.80;17.97;;;;;;;;;;6203805;23;20258;-93
2023/01/24 06:26:26;;;;;;;48.93;19.37;;;;;;;;;;6202135;23;20222;-91
2023/01/24 06:29:33;;;;;;;65.47;22.67;;;;;;;;;;6206354;23;20168;-92
2023/01/24 06:32:42;;;;;;;61.37;24.57;;;;;;;;;;6200970;23;20296;-90
2023/01/24 06:35:52;;;;;;;87.50;33.63;;;;;;;;;;6204261;23;20228;-90
2023/01/24 06:38:59;;;;;;;58.37;23.07;;;;;;;;;;6205302;23;20235;-91
2023/01/24 06:42:21;;;;;;;50.57;21.73;;;;;;;;;;6204055;23;20280;-89
2023/01/24 06:45:26;;;;;;;59.40;23.23;;;;;;;;;;6201238;23;20160;-92
2023/01/24 06:48:33;;;;;;;55.23;21.87;;;;;;;;;;6205920;23;20164;-90
2023/01/24 06:51:40;;;;;;;52.00;21.93;;;;;;;;;;6203694;23;20172;-92
2023/01/24 06:54:46;;;;;;;50.30;20.37;;;;;;;;;;6203153;23;20539;-93
2023/01/24 06:57:57;;;;;;;44.43;19.20;;;;;;;;;;6201007;23;20198;-93
2023/01/24 07:01:02;;;;;;;52.57;21.40;;;;;;;;;;6202741;23;20227;-92
2023/01/24 07:04:08;;;;;;;49.97;20.33;;;;;;;;;;6205317;23;20196;-93
2023/01/24 07:07:13;;;;;;;55.23;21.50;;;;;;;;;;6203609;23;20225;-92
2023/01/24 07:10:19;;;;;;;48.43;19.83;;;;;;;;;;6206241;23;20168;-92
2023/01/24 07:13:30;;;;;;;51.00;19.27;;;;;;;;;;6204867;23;20176;-92
2023/01/24 07:16:35;;;;;;;49.27;19.40;;;;;;;;;;6205833;23;20167;-92
2023/01/24 07:19:42;;;;;;;53.27;20.93;;;;;;;;;;6206899;23;20167;-92
2023/01/24 07:26:09;;;;;;;47.63;20.87;;;;;;;;;;6206460;23;20235;-92
2023/01/24 07:32:35;;;;;;;63.40;22.77;;;;;;;;;;6203561;23;20283;-89
2023/01/24 07:35:42;;;;;;;54.67;20.20;;;;;;;;;;6204889;23;20678;-93
2023/01/24 07:38:47;;;;;;;53.60;20.97;;;;;;;;;;6203779;23;20242;-92
2023/01/24 07:41:54;;;;;;;51.10;20.67;;;;;;;;;;6200893;23;20156;-91
2023/01/24 07:45:01;;;;;;;58.07;22.93;;;;;;;;;;6204124;23;20216;-93
2023/01/24 07:48:10;;;;;;;54.27;21.70;;;;;;;;;;6204889;23;20239;-92
2023/01/24 08:14:25;;;;;;;68.33;26.67;;;;;;;;;;6182603;23;20219;-91
2023/01/24 08:17:31;;;;;;;80.47;30.93;;;;;;;;;;6236142;23;20170;-91
2023/01/24 08:20:36;;;;;;;70.70;26.97;;;;;;;;;;6232548;23;20607;-93
2023/01/24 08:23:43;;;;;;;77.77;31.60;;;;;;;;;;6236062;23;20202;-92
2023/01/24 08:26:48;;;;;;;66.97;25.10;;;;;;;;;;6236825;23;20171;-92
2023/01/24 08:29:56;;;;;;;61.40;24.33;;;;;;;;;;6234722;23;20170;-93
2023/01/24 08:33:06;;;;;;;62.50;24.63;;;;;;;;;;6233552;23;20171;-90
2023/01/24 08:36:12;;;;;;;57.00;23.13;;;;;;;;;;6236047;23;20167;-92
2023/01/24 08:39:17;;;;;;;58.30;21.57;;;;;;;;;;6234904;23;20159;-91
2023/01/24 08:42:23;;;;;;;54.10;20.73;;;;;;;;;;6233156;23;20187;-92
2023/01/24 08:45:31;;;;;;;50.77;21.20;;;;;;;;;;6233664;23;20168;-90
2023/01/24 08:48:37;;;;;;;53.37;22.07;;;;;;;;;;6235910;23;20167;-91
2023/01/24 08:51:42;;;;;;;52.53;20.77;;;;;;;;;;6234192;23;20187;-92
2023/01/24 08:54:48;;;;;;;50.83;20.57;;;;;;;;;;6235701;23;20184;-91
2023/01/24 08:57:59;;;;;;;52.80;19.60;;;;;;;;;;6235488;23;20199;-91
2023/01/24 09:01:09;;;;;;;51.37;20.47;;;;;;;;;;6235192;23;20152;-91
2023/01/24 09:04:16;;;;;;;47.20;20.13;;;;;;;;;;6236352;23;20243;-90
2023/01/24 09:07:22;;;;;;;48.03;19.53;;;;;;;;;;6234578;23;20171;-91
2023/01/24 09:10:30;;;;;;;47.00;20.13;;;;;;;;;;6237599;23;20220;-91
2023/01/24 09:13:36;;;;;;;48.17;19.33;;;;;;;;;;6234732;23;20265;-92
2023/01/24 09:16:44;;;;;;;47.47;19.33;;;;;;;;;;6234453;23;20183;-92
2023/01/24 09:19:50;;;;;;;48.90;19.97;;;;;;;;;;6238048;23;20175;-91
2023/01/24 09:22:55;;;;;;;51.47;20.20;;;;;;;;;;6235215;23;20195;-91
2023/01/24 09:26:01;;;;;;;49.77;21.03;;;;;;;;;;6232950;23;20235;-91
2023/01/24 09:29:07;;;;;;;47.83;19.70;;;;;;;;;;6235395;23;20186;-90
2023/01/24 09:32:14;;;;;;;44.53;18.30;;;;;;;;;;6232683;23;20172;-91
2023/01/24 09:35:19;;;;;;;46.17;19.07;;;;;;;;;;6232866;23;20170;-90
2023/01/24 09:38:25;;;;;;;42.33;18.07;;;;;;;;;;6234649;23;20166;-92
2023/01/24 09:41:45;;;;;;;48.43;19.17;;;;;;;;;;6235671;23;20215;-90
2023/01/24 09:44:56;;;;;;;42.37;17.70;;;;;;;;;;6239423;23;20203;-90
2023/01/24 09:48:04;;;;;;;40.47;17.83;;;;;;;;;;6238602;23;20164;-89
2023/01/24 09:51:15;;;;;;;40.63;17.90;;;;;;;;;;6229576;23;20239;-90
2023/01/24 09:54:26;;;;;;;39.80;18.50;;;;;;;;;;6230601;23;20163;-91
2023/01/24 09:57:34;;;;;;;45.20;17.47;;;;;;;;;;6231102;23;20151;-91
2023/01/24 10:00:41;;;;;;;41.70;17.30;;;;;;;;;;6231209;23;20167;-89
2023/01/24 10:03:48;;;;;;;44.73;19.20;;;;;;;;;;6231661;23;20187;-89
2023/01/24 10:06:59;;;;;;;41.03;16.83;;;;;;;;;;6232054;23;20218;-90
2023/01/24 10:10:08;;;;;;;42.17;17.60;;;;;;;;;;6230294;23;20171;-90
2023/01/24 10:13:19;;;;;;;36.73;14.73;;;;;;;;;;6231582;23;20171;-91
2023/01/24 10:16:33;;;;;;;37.37;15.23;;;;;;;;;;6230822;23;20171;-90
2023/01/24 10:19:53;;;;;;;29.97;13.03;;;;;;;;;;6230239;23;20159;-90
2023/01/24 10:23:02;;;;;;;26.70;11.03;;;;;;;;;;6230149;23;20614;-90
2023/01/24 10:26:16;;;;;;;31.67;13.70;;;;;;;;;;6229622;23;20171;-91
2023/01/24 10:29:29;;;;;;;26.33;11.87;;;;;;;;;;6231102;23;20187;-90
2023/01/24 10:32:35;;;;;;;22.00;9.30;;;;;;;;;;6233021;23;20150;-91
2023/01/24 10:35:54;;;;;;;26.93;9.33;;;;;;;;;;6231154;23;20166;-94
2023/01/24 10:39:00;;;;;;;23.27;10.27;;;;;;;;;;6231874;23;20174;-90
2023/01/24 10:42:13;;;;;;;20.47;9.47;;;;;;;;;;6230894;23;20167;-90
2023/01/24 10:45:29;;;;;;;23.23;10.47;;;;;;;;;;6230931;23;20167;-87
2023/01/24 10:48:39;;;;;;;21.07;9.37;;;;;;;;;;6231617;23;20186;-91
2023/01/24 10:52:06;;;;;;;16.33;8.03;;;;;;;;;;6229324;23;20606;-91
2023/01/24 10:55:26;;;;;;;19.90;8.30;;;;;;;;;;6230129;23;20183;-91
2023/01/24 10:58:37;;;;;;;24.63;9.97;;;;;;;;;;6230727;23;20171;-91
2023/01/24 11:01:46;;;;;;;17.87;8.17;;;;;;;;;;6233894;23;20170;-89
2023/01/24 11:05:00;;;;;;;14.40;7.07;;;;;;;;;;6229527;23;20532;-91
2023/01/24 11:08:07;;;;;;;14.53;7.33;;;;;;;;;;6229997;23;20223;-90
2023/01/24 11:11:20;;;;;;;15.00;6.67;;;;;;;;;;6228761;23;20167;-91
2023/01/24 11:14:26;;;;;;;14.33;6.63;;;;;;;;;;6229421;23;20178;-90
2023/01/24 11:17:33;;;;;;;14.00;6.63;;;;;;;;;;6228822;23;20237;-90
2023/01/24 11:20:39;;;;;;;18.47;6.87;;;;;;;;;;6228301;23;20151;-90
2023/01/24 11:23:45;;;;;;;14.57;6.97;;;;;;;;;;6226860;23;20518;-92
2023/01/24 11:26:59;;;;;;;14.50;7.10;;;;;;;;;;6228077;23;20175;-91
2023/01/24 11:30:08;;;;;;;13.87;6.57;;;;;;;;;;6230532;23;20184;-90
2023/01/24 11:33:25;;;;;;;15.50;6.87;;;;;;;;;;6229823;23;20163;-91
2023/01/24 11:36:41;;;;;;;15.93;7.27;;;;;;;;;;6229159;23;20246;-90
2023/01/24 11:39:56;;;;;;;13.23;6.83;;;;;;;;;;6228144;23;20163;-90
2023/01/24 11:43:09;;;;;;;15.50;6.67;;;;;;;;;;6227814;23;20167;-90
2023/01/24 11:46:34;;;;;;;16.60;7.17;;;;;;;;;;6225841;23;20611;-91
2023/01/24 11:50:10;;;;;;;14.77;7.03;;;;;;;;;;6228568;23;20172;-89
2023/01/24 11:53:26;;;;;;;16.90;6.60;;;;;;;;;;6228568;23;20167;-91
2023/01/24 11:56:36;;;;;;;14.23;6.30;;;;;;;;;;6228190;23;20163;-90
2023/01/24 11:59:48;;;;;;;13.85;6.07;;;;;;;;;;6230133;23;20147;-91
2023/01/24 12:03:03;;;;;;;13.43;6.03;;;;;;;;;;6232780;23;20233;-90
2023/01/24 12:06:16;;;;;;;11.90;5.77;;;;;;;;;;6230966;23;20215;-91
2023/01/24 12:09:23;;;;;;;12.13;6.23;;;;;;;;;;6232511;23;20253;-91
2023/01/24 12:12:34;;;;;;;12.47;6.40;;;;;;;;;;6229482;23;20497;-91
2023/01/24 12:15:54;;;;;;;18.13;8.03;;;;;;;;;;6231893;23;20643;-91
2023/01/24 12:19:11;;;;;;;16.40;7.47;;;;;;;;;;6233958;23;20244;-92
2023/01/24 12:22:19;;;;;;;14.13;7.00;;;;;;;;;;6231865;23;20163;-92
2023/01/24 12:25:29;;;;;;;15.87;6.97;;;;;;;;;;6230451;23;20219;-92
2023/01/24 12:28:40;;;;;;;17.70;7.23;;;;;;;;;;6231955;23;20159;-91
2023/01/24 12:31:49;;;;;;;18.53;6.97;;;;;;;;;;6229045;23;20622;-91
2023/01/24 12:34:57;;;;;;;13.20;6.40;;;;;;;;;;6229636;23;20171;-91
2023/01/24 12:38:05;;;;;;;17.50;8.27;;;;;;;;;;6213182;23;20191;-91
2023/01/24 12:41:15;;;;;;;16.57;8.03;;;;;;;;;;6229269;23;20513;-93
2023/01/24 12:44:30;;;;;;;16.73;7.63;;;;;;;;;;6230300;23;20207;-92
2023/01/24 12:47:38;;;;;;;14.70;6.77;;;;;;;;;;6230009;23;20190;-91
2023/01/24 12:50:48;;;;;;;13.07;6.13;;;;;;;;;;6227348;23;20164;-91
2023/01/24 12:54:03;;;;;;;11.10;5.33;;;;;;;;;;6228177;23;20171;-92
2023/01/24 12:57:15;;;;;;;12.23;5.67;;;;;;;;;;6229854;23;20159;-91
2023/01/24 13:00:27;;;;;;;12.90;5.70;;;;;;;;;;6235951;23;20172;-93
2023/01/24 13:03:55;;;;;;;16.57;6.83;;;;;;;;;;6230407;23;20291;-92
2023/01/24 13:07:07;;;;;;;13.23;5.87;;;;;;;;;;6233288;23;20174;-91
2023/01/24 13:10:19;;;;;;;13.73;5.93;;;;;;;;;;6231897;23;20609;-93
2023/01/24 13:13:39;;;;;;;11.90;5.83;;;;;;;;;;6229926;23;20221;-91
2023/01/24 13:17:06;;;;;;;11.10;5.60;;;;;;;;;;6229074;23;20187;-92
2023/01/24 13:20:26;;;;;;;12.63;6.37;;;;;;;;;;6231531;23;20172;-92
2023/01/24 13:23:48;;;;;;;13.73;6.10;;;;;;;;;;6232194;23;20182;-91
2023/01/24 13:27:12;;;;;;;14.90;6.10;;;;;;;;;;6231079;23;20232;-92
2023/01/24 13:30:28;;;;;;;15.30;5.37;;;;;;;;;;6230895;23;20171;-91
2023/01/24 13:33:40;;;;;;;12.87;5.53;;;;;;;;;;6232199;23;20167;-92
2023/01/24 13:36:49;;;;;;;18.70;6.83;;;;;;;;;;6230419;23;20167;-90
2023/01/24 13:40:16;;;;;;;13.77;6.47;;;;;;;;;;6237219;23;20147;-91
2023/01/24 13:43:41;;;;;;;14.43;6.90;;;;;;;;;;6236846;23;20211;-91
2023/01/24 13:47:32;;;;;;;14.80;6.33;;;;;;;;;;6235141;23;20166;-91
2023/01/24 13:50:39;;;;;;;11.53;5.87;;;;;;;;;;6233928;23;20224;-89
2023/01/24 13:54:01;;;;;;;16.93;6.70;;;;;;;;;;6235358;23;20194;-90
2023/01/24 13:57:21;;;;;;;16.13;7.20;;;;;;;;;;6229448;23;20171;-91
2023/01/24 14:00:29;;;;;;;15.93;7.23;;;;;;;;;;6229128;23;20218;-92
2023/01/24 14:03:35;;;;;;;14.93;8.07;;;;;;;;;;6233196;23;20207;-92
2023/01/24 14:10:07;;;;;;;16.53;7.73;;;;;;;;;;6238056;23;20171;-92
2023/01/24 14:13:29;;;;;;;19.87;8.13;;;;;;;;;;6238561;23;20171;-91
2023/01/24 14:16:55;;;;;;;14.37;7.40;;;;;;;;;;6237198;23;20191;-93
2023/01/24 14:23:30;;;;;;;14.13;6.97;;;;;;;;;;6237269;23;20191;-90
2023/01/24 14:26:36;;;;;;;18.23;7.10;;;;;;;;;;6238320;23;20175;-91
2023/01/24 14:29:45;;;;;;;15.90;7.97;;;;;;;;;;6239800;23;20218;-89
2023/01/24 14:32:55;;;;;;;20.70;9.50;;;;;;;;;;6239574;23;20187;-92
2023/01/24 14:36:17;;;;;;;20.00;10.50;;;;;;;;;;6240027;23;20285;-91
2023/01/24 14:39:27;;;;;;;17.23;7.30;;;;;;;;;;6239083;23;20178;-91
2023/01/24 14:42:34;;;;;;;15.90;7.73;;;;;;;;;;6238076;23;20187;-91
2023/01/24 14:45:42;;;;;;;17.07;6.90;;;;;;;;;;6239134;23;20198;-92
2023/01/24 15:24:15;;;;;;;18.70;7.77;;;;;;;;;;6209074;23;20277;-92
2023/01/24 15:27:25;;;;;;;15.70;7.20;;;;;;;;;;6214711;23;20199;-91
2023/01/24 15:30:31;;;;;;;42.93;16.33;;;;;;;;;;6216038;23;20162;-90
2023/01/24 15:33:41;;;;;;;15.43;7.23;;;;;;;;;;6217237;23;20171;-91
2023/01/24 15:36:48;;;;;;;25.67;10.53;;;;;;;;;;6217880;23;20175;-91
2023/01/24 15:40:01;;;;;;;20.33;10.20;;;;;;;;;;6220292;23;20215;-91
2023/01/24 15:55:02;;;;;;;19.10;9.20;;;;;;;;;;6233127;23;20163;-92
2023/01/24 15:58:10;;;;;;;17.37;8.10;;;;;;;;;;6217904;23;20231;-90
2023/01/24 16:01:16;;;;;;;20.30;9.17;;;;;;;;;;6218615;23;20175;-90
2023/01/24 16:18:12;;;;;;;23.83;10.07;;;;;;;;;;6223859;23;20235;-92
2023/01/24 16:21:20;;;;;;;18.17;9.80;;;;;;;;;;6222194;23;20187;-90
2023/01/24 18:05:57;;;;;;;17.73;8.33;;;;;;;;;;6157114;22;20446;-91
2023/01/24 18:09:02;;;;;;;17.97;8.23;;;;;;;;;;6213379;23;20180;-90
2023/01/24 18:15:48;;;;;;;19.10;8.83;;;;;;;;;;6215665;23;20167;-89
2023/01/24 18:19:07;;;;;;;18.77;8.13;;;;;;;;;;6216818;23;20207;-88
2023/01/24 18:22:17;;;;;;;16.33;7.47;;;;;;;;;;6214802;23;20155;-89
2023/01/24 18:25:22;;;;;;;16.47;8.07;;;;;;;;;;6214750;23;20195;-90
2023/01/24 18:28:27;;;;;;;16.40;7.40;;;;;;;;;;6215353;23;20231;-92
2023/01/24 18:31:33;;;;;;;15.37;7.80;;;;;;;;;;6216315;23;20166;-91
2023/01/24 18:34:40;;;;;;;17.77;8.17;;;;;;;;;;6216016;23;20206;-91
2023/01/24 18:37:48;;;;;;;16.60;7.43;;;;;;;;;;6216451;23;20171;-91
2023/01/24 18:41:01;;;;;;;15.77;7.57;;;;;;;;;;6218324;23;20196;-90
2023/01/24 18:44:06;;;;;;;15.37;6.70;;;;;;;;;;6216699;23;20235;-92
2023/01/24 18:47:15;;;;;;;17.67;7.50;;;;;;;;;;6216765;23;20166;-91
2023/01/24 18:50:23;;;;;;;15.20;6.77;;;;;;;;;;6215699;23;20182;-91
2023/01/24 18:57:17;;;;;;;15.07;7.20;;;;;;;;;;6216954;23;20163;-92
2023/01/24 19:04:13;;;;;;;17.73;7.90;;;;;;;;;;6215127;23;20195;-92
2023/01/24 19:07:19;;;;;;;20.97;8.60;;;;;;;;;;6214767;23;20211;-91
2023/01/24 19:10:25;;;;;;;17.40;8.20;;;;;;;;;;6217913;23;20274;-90
2023/01/24 19:13:31;;;;;;;18.03;8.20;;;;;;;;;;6213398;23;20206;-92
2023/01/24 19:16:39;;;;;;;22.03;9.60;;;;;;;;;;6214872;23;20223;-92
2023/01/24 19:19:44;;;;;;;20.97;8.70;;;;;;;;;;6210343;23;20174;-91
2023/01/24 19:22:50;;;;;;;17.53;8.10;;;;;;;;;;6212726;23;20277;-90
2023/01/24 19:26:02;;;;;;;17.77;7.40;;;;;;;;;;6213787;23;20178;-91
2023/01/24 19:29:08;;;;;;;14.93;7.13;;;;;;;;;;6213057;23;20179;-91
2023/01/24 19:32:13;;;;;;;15.33;6.43;;;;;;;;;;6212694;23;20210;-90
2023/01/24 19:35:19;;;;;;;15.37;7.30;;;;;;;;;;6216255;23;20175;-91
2023/01/24 19:38:30;;;;;;;19.97;10.33;;;;;;;;;;6217147;23;20212;-89
2023/01/24 19:41:39;;;;;;;19.43;9.70;;;;;;;;;;6216831;23;20167;-92
2023/01/24 19:44:45;;;;;;;17.33;7.57;;;;;;;;;;6234907;23;20651;-89
2023/01/24 19:47:53;;;;;;;16.87;7.63;;;;;;;;;;6215665;23;20172;-92
2023/01/24 19:51:01;;;;;;;16.10;7.20;;;;;;;;;;6218151;23;20212;-90
2023/01/24 19:54:14;;;;;;;17.37;7.30;;;;;;;;;;6218060;23;20179;-91
2023/01/24 19:57:22;;;;;;;16.60;7.37;;;;;;;;;;6217392;23;20221;-94
2023/01/24 20:00:29;;;;;;;13.60;6.80;;;;;;;;;;6218263;23;20179;-92
2023/01/24 20:03:34;;;;;;;17.83;7.20;;;;;;;;;;6215147;23;20239;-92
2023/01/24 20:06:39;;;;;;;14.83;6.60;;;;;;;;;;6217115;23;20214;-91
2023/01/24 20:09:46;;;;;;;13.13;6.30;;;;;;;;;;6214981;23;20216;-92
2023/01/24 20:12:55;;;;;;;13.13;6.87;;;;;;;;;;6215437;23;20171;-91
2023/01/24 20:16:04;;;;;;;17.50;7.47;;;;;;;;;;6215265;23;20212;-90
2023/01/24 20:19:10;;;;;;;15.67;6.57;;;;;;;;;;6216461;23;20152;-92
2023/01/24 20:22:19;;;;;;;19.37;7.90;;;;;;;;;;6218408;23;20166;-91
2023/01/24 20:25:26;;;;;;;16.57;6.77;;;;;;;;;;6219514;23;20239;-90
2023/01/24 20:28:33;;;;;;;25.30;10.70;;;;;;;;;;6220398;23;20167;-92
2023/01/24 20:31:46;;;;;;;16.27;7.43;;;;;;;;;;6219761;23;20167;-90
2023/01/24 20:34:52;;;;;;;24.73;10.03;;;;;;;;;;6219825;23;20204;-91
2023/01/24 20:37:58;;;;;;;16.07;7.43;;;;;;;;;;6218887;23;20311;-90
2023/01/24 20:41:05;;;;;;;18.30;7.47;;;;;;;;;;6219768;23;20614;-92
2023/01/24 20:44:14;;;;;;;19.00;8.93;;;;;;;;;;6217951;23;20187;-91
2023/01/24 20:47:23;;;;;;;19.37;10.50;;;;;;;;;;6218152;23;20171;-92
2023/01/24 20:50:31;;;;;;;16.63;7.47;;;;;;;;;;6218380;23;20158;-90
2023/01/24 20:53:37;;;;;;;17.60;7.50;;;;;;;;;;6218307;23;20162;-92
2023/01/24 20:56:46;;;;;;;19.70;8.00;;;;;;;;;;6217530;23;20177;-91
2023/01/24 20:59:51;;;;;;;21.23;8.73;;;;;;;;;;6220429;23;20610;-91
2023/01/24 21:03:00;;;;;;;18.60;8.17;;;;;;;;;;6218312;23;20160;-90
2023/01/24 23:32:52;;;;;;;20.90;8.63;;;;;;;;;;6178023;22;20208;-91
2023/01/24 23:36:02;;;;;;;18.80;8.17;;;;;;;;;;6218241;23;20167;-93
2023/01/24 23:39:08;;;;;;;19.33;7.60;;;;;;;;;;6215883;22;20147;-92
2023/01/24 23:42:14;;;;;;;20.53;7.37;;;;;;;;;;6218599;22;20156;-93
2023/01/24 23:45:22;;;;;;;14.83;6.87;;;;;;;;;;6219344;22;20195;-89
2023/01/24 23:48:31;;;;;;;22.33;7.43;;;;;;;;;;6216849;23;20195;-91
2023/01/24 23:51:45;;;;;;;16.83;7.40;;;;;;;;;;6215139;23;20164;-91
2023/01/24 23:54:50;;;;;;;18.03;7.60;;;;;;;;;;6216183;22;20168;-91
2023/01/24 23:57:57;;;;;;;19.80;7.80;;;;;;;;;;6217069;22;20230;-92
